Rechercher aéroport 
image banner adimage banner adimage banner ad
image banner ad

L22 - Yucca Valley

Situé à Yucca Valley, United States

ICAO - L22, IATA -

Données fournies par Airmate  

Information générale

Coordonnées: N34°7'47" W116°24'25"
Élévation : 3224 feet MSL.
Variation magnétique : 14° East
Voir autres Aéroports à California

Données opérationnelles

Special qualification required
Heure actuelle UTC:
Heure actuelle locale:
Météo à : KNXP - Twentynine Palms Self ( 29 km )
METAR: KNXP 300156Z AUTO 22018KT 10SM CLR 38/04 A2988 RMK AO2 SLP075 T03830039
TAF: TAF KNXP 2921/3021 VRB06KT 9999 SKC QNH2990INS BECMG 3000/3002 24012KT 9999 SKC QNH2992INS BECMG 0308/0310 VRB05KT 9999 SKC QNH2995INS FM031830 12010KT 9999 SKC QNH2999INS TEMPO 0319/0321 14010G20KT T41/2923Z T28/3014Z
Voir NOTAMs / SUP AIP / TFR affectant cet aéroport [VIEW]
Fréquences de communication: [VIEW]

Pistes:

Identifiant RWYQFULongueur (ft)Largeur (ft)SurfaceLDA (ft)
0670°436360ASPH
24250°436360ASPH

Coordonnées de l'aéroport

Adresse: Yucca Valley United States

Vue satellite de L22